Hovedside
METAR-TAF:

METAR-TAF

Lufthavner :

Pacific Missile Test Facility Barking Sands

Kekaha, Hawaii, USA

breddegrad: 22-02-11N, lengdegrad: 159-47-11W, høyde over havet: 4 m

Gjeldene værobservasjon

Denne rapporten ble laget for 49 minutter siden, klokken 02:51 UTC
Vind 10 kt fra Vest
Temperatur 31°C
Luftfuktighet 49%
Trykk 1016 hPa
Sikt: 16.1 km
Brutte skyer i en høyde av 5000 ft

METAR: PHBK 200251Z AUTO 26010KT 10SM BKN050 31/19 A2999 RMK AO2 SLP159 T03060189 56013

Tid: 17:40 (03:40 UTC)


TAF: fraværende

Værobservasjoner og værvarsel for over 4000 flyplasser (METAR- og TAF-rapporter).

Tilgjengelige stasjoner er representert av de røde og gule prikkene på kartet.

Hold musepekeren over prikken for å se navnet på stasjonen.

Klikk så for å se værobservasjoner og -varsler.

For å forandre kartet kan du klikke på den grønne knappen med svart kryss for å zoome inn, på den grønne knappen med strek for å zoome ut, eller på de grønne pilene for å se tilstøtende kart.


METAR-TAF: